Time;durP1;ratioP1;P1;durP2;ratioP2;P2;SDS_P1;SDS_P2;PMS_P1;PMS_P2;Temp;Humidity;BMP_temperature;BMP_pressure;BME280_temperature;BME280_humidity;BME280_pressure;Samples;Min_cycle;Max_cycle;Signal;HPM_P1;HPM_P2
2023/05/06 00:02:13;;;;;;;8.73;5.10;;;14.10;44.80;;;;;;5076771;28;20477;-64
2023/05/06 00:04:40;;;;;;;7.30;5.13;;;13.90;44.40;;;;;;5081050;28;20453;-64
2023/05/06 00:07:07;;;;;;;6.47;4.00;;;13.90;44.20;;;;;;5076515;28;20484;-64
2023/05/06 00:09:35;;;;;;;7.17;4.90;;;13.80;43.70;;;;;;5073480;28;20545;-64
2023/05/06 00:12:04;;;;;;;6.90;4.53;;;13.70;43.80;;;;;;5077238;28;20497;-64
2023/05/06 00:17:06;;;;;;;9.60;6.30;;;13.60;43.50;;;;;;5101322;22;20492;-64
2023/05/06 00:19:33;;;;;;;9.10;6.90;;;13.60;43.70;;;;;;5055304;28;20508;-64
2023/05/06 00:21:59;;;;;;;12.13;7.47;;;13.60;44.60;;;;;;5063450;28;20843;-64
2023/05/06 00:24:26;;;;;;;8.77;6.67;;;13.70;45.20;;;;;;5066125;28;20464;-64
2023/05/06 00:26:54;;;;;;;9.63;7.13;;;13.70;44.90;;;;;;5040354;28;21030;-64
2023/05/06 00:29:21;;;;;;;8.60;6.70;;;13.60;45.10;;;;;;5053259;22;20486;-67
2023/05/06 00:31:47;;;;;;;9.60;7.20;;;13.60;45.60;;;;;;5043252;28;20494;-69
2023/05/06 00:34:14;;;;;;;8.40;6.30;;;13.50;45.70;;;;;;5039979;28;20473;-69
2023/05/06 00:36:41;;;;;;;10.90;7.00;;;13.50;45.50;;;;;;5031726;28;20485;-68
2023/05/06 00:39:08;;;;;;;10.80;7.20;;;13.50;45.50;;;;;;5027947;28;20574;-67
2023/05/06 00:41:35;;;;;;;11.77;8.10;;;13.40;45.80;;;;;;5032023;28;20471;-66
2023/05/06 00:44:03;;;;;;;9.70;7.50;;;13.40;46.00;;;;;;5032481;28;20951;-67
2023/05/06 00:46:30;;;;;;;8.80;6.93;;;13.40;46.20;;;;;;5034816;28;20486;-68
2023/05/06 00:48:57;;;;;;;12.93;8.93;;;13.40;46.10;;;;;;5029141;28;20462;-67
2023/05/06 00:51:24;;;;;;;10.73;7.37;;;13.40;46.00;;;;;;5029423;28;20463;-66
2023/05/06 00:53:51;;;;;;;12.20;8.67;;;13.40;45.90;;;;;;5036690;28;20458;-66
2023/05/06 00:56:18;;;;;;;10.30;8.27;;;13.40;46.00;;;;;;5035314;28;20474;-67
2023/05/06 00:58:44;;;;;;;10.40;7.60;;;13.50;46.30;;;;;;5027290;28;20459;-67
2023/05/06 01:01:13;;;;;;;10.70;8.30;;;13.50;46.20;;;;;;5037051;28;20489;-67
2023/05/06 01:03:39;;;;;;;17.33;8.00;;;13.60;46.20;;;;;;5049077;28;20930;-67
2023/05/06 01:06:16;;;;;;;11.20;7.50;;;13.60;46.10;;;;;;5050418;28;20490;-67
2023/05/06 01:08:51;;;;;;;10.00;8.20;;;13.60;45.90;;;;;;5048043;28;20844;-66
2023/05/06 01:11:26;;;;;;;10.73;7.90;;;13.60;45.70;;;;;;5051561;28;20453;-67
2023/05/06 01:14:02;;;;;;;14.47;9.03;;;13.60;45.70;;;;;;5051992;28;20461;-68
2023/05/06 01:16:31;;;;;;;13.10;9.53;;;13.60;45.70;;;;;;5045985;28;20520;-66
2023/05/06 01:19:00;;;;;;;12.73;9.63;;;13.50;45.80;;;;;;5052048;28;20461;-67
2023/05/06 01:21:33;;;;;;;12.63;9.80;;;13.50;46.10;;;;;;5049540;28;20480;-66
2023/05/06 01:24:01;;;;;;;12.53;9.60;;;13.50;46.30;;;;;;5050342;28;20494;-66
2023/05/06 01:26:28;;;;;;;14.37;10.20;;;13.50;46.40;;;;;;5046141;28;20485;-68
2023/05/06 01:28:57;;;;;;;11.80;9.07;;;13.50;46.70;;;;;;5046363;28;20860;-67
2023/05/06 01:31:25;;;;;;;11.53;9.17;;;13.50;46.60;;;;;;5049172;28;20512;-67
2023/05/06 01:34:02;;;;;;;13.30;9.40;;;13.50;46.70;;;;;;5053189;28;20458;-66
2023/05/06 01:36:37;;;;;;;14.17;9.80;;;13.50;46.90;;;;;;5051729;28;20477;-67
2023/05/06 01:39:12;;;;;;;16.03;11.20;;;13.60;47.00;;;;;;5052048;28;20964;-67
2023/05/06 01:41:40;;;;;;;12.93;10.53;;;13.60;47.60;;;;;;5052478;28;20540;-66
2023/05/06 01:44:08;;;;;;;13.40;11.53;;;13.60;47.60;;;;;;5049283;28;20493;-66
2023/05/06 01:46:35;;;;;;;13.47;10.83;;;13.60;47.90;;;;;;5047287;28;20489;-67
2023/05/06 01:49:05;;;;;;;12.67;10.97;;;13.60;48.00;;;;;;5048995;28;20842;-67
2023/05/06 01:51:33;;;;;;;13.57;10.57;;;13.60;47.90;;;;;;5047064;28;21053;-67
2023/05/06 01:54:00;;;;;;;12.63;10.30;;;13.60;47.60;;;;;;5049732;28;20537;-67
2023/05/06 01:56:29;;;;;;;14.47;11.10;;;13.60;47.50;;;;;;5045152;28;20480;-67
2023/05/06 01:58:55;;;;;;;12.47;10.67;;;13.70;47.50;;;;;;5043718;28;20573;-67
2023/05/06 02:01:22;;;;;;;12.60;10.70;;;13.70;47.50;;;;;;5052207;28;20478;-67
2023/05/06 02:03:49;;;;;;;13.37;9.77;;;13.70;47.50;;;;;;5047730;28;20460;-66
2023/05/06 02:06:16;;;;;;;12.67;10.80;;;13.70;47.60;;;;;;5053527;28;20486;-66
2023/05/06 02:08:42;;;;;;;14.20;10.73;;;13.70;47.90;;;;;;5051021;28;20461;-66
2023/05/06 02:11:09;;;;;;;13.40;10.67;;;13.70;47.80;;;;;;5049922;28;20545;-68
2023/05/06 02:13:37;;;;;;;14.20;12.23;;;13.70;47.70;;;;;;5045017;28;20981;-66
2023/05/06 02:16:04;;;;;;;14.23;11.73;;;13.70;47.70;;;;;;5045557;28;20486;-67
2023/05/06 02:18:31;;;;;;;12.73;10.93;;;13.70;47.60;;;;;;5044623;28;20464;-66
2023/05/06 02:20:58;;;;;;;13.53;11.33;;;13.70;47.40;;;;;;5047690;28;20458;-66
2023/05/06 02:23:24;;;;;;;18.73;11.70;;;13.70;47.50;;;;;;5052723;28;20458;-66
2023/05/06 02:25:51;;;;;;;16.70;13.00;;;13.70;47.50;;;;;;5049777;28;20477;-67
2023/05/06 02:28:18;;;;;;;15.77;12.27;;;13.70;47.40;;;;;;5047851;28;20826;-67
2023/05/06 02:30:46;;;;;;;13.50;11.43;;;13.60;47.20;;;;;;5052049;28;20462;-66
2023/05/06 02:33:13;;;;;;;13.27;11.03;;;13.60;47.10;;;;;;5047625;28;20473;-67
2023/05/06 02:35:39;;;;;;;13.57;10.83;;;13.60;46.80;;;;;;5055326;28;20490;-67
2023/05/06 02:38:06;;;;;;;14.07;10.70;;;13.60;46.90;;;;;;5056049;28;20496;-67
2023/05/06 02:40:33;;;;;;;13.97;11.73;;;13.60;46.80;;;;;;5050926;28;20466;-67
2023/05/06 02:43:00;;;;;;;13.80;10.83;;;13.50;46.90;;;;;;5050678;28;20817;-67
2023/05/06 02:45:26;;;;;;;13.73;11.43;;;13.50;46.80;;;;;;5052695;28;20474;-66
2023/05/06 02:47:54;;;;;;;13.80;11.67;;;13.50;46.90;;;;;;5047469;28;20821;-68
2023/05/06 02:50:21;;;;;;;13.30;10.83;;;13.50;47.00;;;;;;5052457;28;20465;-66
2023/05/06 02:52:48;;;;;;;13.60;11.60;;;13.50;47.00;;;;;;5052342;28;20831;-67
2023/05/06 02:55:14;;;;;;;13.30;10.70;;;13.50;47.30;;;;;;5049849;28;20488;-67
2023/05/06 02:57:41;;;;;;;13.07;11.33;;;13.50;47.50;;;;;;5054636;28;20465;-66
2023/05/06 03:00:10;;;;;;;13.07;10.70;;;13.60;47.30;;;;;;5053148;28;20854;-66
2023/05/06 03:02:37;;;;;;;14.97;11.37;;;13.60;47.10;;;;;;5050683;28;20505;-66
2023/05/06 03:05:06;;;;;;;13.17;10.80;;;13.60;47.10;;;;;;5049754;28;20486;-67
2023/05/06 03:07:34;;;;;;;13.00;9.77;;;13.50;47.50;;;;;;5051355;28;20472;-66
2023/05/06 03:10:01;;;;;;;15.33;10.67;;;13.50;47.40;;;;;;5054113;28;20461;-66
2023/05/06 03:12:27;;;;;;;12.00;10.03;;;13.50;47.30;;;;;;5051857;28;20478;-66
2023/05/06 03:14:54;;;;;;;11.87;9.80;;;13.40;47.20;;;;;;5048910;28;20481;-66
2023/05/06 03:17:21;;;;;;;13.77;10.70;;;13.40;46.90;;;;;;5050810;28;21175;-66
2023/05/06 03:19:49;;;;;;;13.07;10.43;;;13.40;47.30;;;;;;5052378;28;20450;-67
2023/05/06 03:22:17;;;;;;;12.90;10.77;;;13.30;47.60;;;;;;5051589;28;20457;-67
2023/05/06 03:24:44;;;;;;;13.63;11.53;;;13.30;48.00;;;;;;5048603;28;20457;-67
2023/05/06 03:27:10;;;;;;;15.67;11.70;;;13.30;48.20;;;;;;5049961;28;20461;-67
2023/05/06 03:29:37;;;;;;;18.03;12.10;;;13.30;48.30;;;;;;5053806;28;20469;-67
2023/05/06 03:32:04;;;;;;;15.27;11.90;;;13.20;48.40;;;;;;5052212;28;20484;-67
2023/05/06 03:34:31;;;;;;;14.60;11.60;;;13.20;48.40;;;;;;5050861;28;20458;-67
2023/05/06 03:36:59;;;;;;;15.40;11.90;;;13.20;48.30;;;;;;5046494;28;20485;-66
2023/05/06 03:39:27;;;;;;;13.20;10.53;;;13.20;48.40;;;;;;5053596;28;20493;-67
2023/05/06 03:41:53;;;;;;;14.80;11.30;;;13.20;48.40;;;;;;5051261;28;21192;-67
2023/05/06 03:44:20;;;;;;;13.20;11.17;;;13.20;48.40;;;;;;5048644;28;20462;-66
2023/05/06 03:46:47;;;;;;;15.33;11.23;;;13.10;48.40;;;;;;5050341;28;20898;-67
2023/05/06 03:49:14;;;;;;;16.60;10.90;;;13.10;48.60;;;;;;5051550;28;20466;-67
2023/05/06 03:51:41;;;;;;;14.93;11.23;;;13.10;48.60;;;;;;5054370;28;20493;-67
2023/05/06 03:54:07;;;;;;;13.60;11.10;;;13.10;48.60;;;;;;5048432;28;20457;-67
2023/05/06 03:56:35;;;;;;;14.00;11.40;;;13.10;48.60;;;;;;5049451;28;20485;-66
2023/05/06 03:59:02;;;;;;;14.00;11.30;;;13.00;48.70;;;;;;5051543;28;20527;-66
2023/05/06 04:01:29;;;;;;;15.03;12.73;;;13.00;48.80;;;;;;5053339;28;20478;-66
2023/05/06 04:03:56;;;;;;;16.70;11.50;;;13.00;48.70;;;;;;5054268;28;20446;-66
2023/05/06 04:06:22;;;;;;;13.47;10.80;;;13.00;49.00;;;;;;5053213;28;20482;-67
2023/05/06 04:08:49;;;;;;;17.27;12.20;;;13.10;49.20;;;;;;5051410;28;20473;-67
2023/05/06 04:11:16;;;;;;;14.47;11.57;;;13.10;49.40;;;;;;5053951;28;20454;-67
2023/05/06 04:13:44;;;;;;;12.67;10.70;;;13.10;49.40;;;;;;5051617;28;20468;-67
2023/05/06 04:16:11;;;;;;;14.73;11.77;;;13.10;49.40;;;;;;5048286;28;20488;-67
2023/05/06 04:18:38;;;;;;;14.47;11.00;;;13.20;49.00;;;;;;5053251;28;20466;-67
2023/05/06 04:21:05;;;;;;;14.40;10.87;;;13.20;48.80;;;;;;5049280;28;20481;-66
2023/05/06 04:23:32;;;;;;;15.17;10.47;;;13.30;48.70;;;;;;5049757;28;20527;-66
2023/05/06 04:25:59;;;;;;;15.40;10.50;;;13.30;48.40;;;;;;5047622;28;20487;-66
2023/05/06 04:28:26;;;;;;;13.70;10.50;;;13.40;48.40;;;;;;5048555;28;20475;-67
2023/05/06 04:30:54;;;;;;;13.10;11.00;;;13.40;48.50;;;;;;5049345;28;20484;-67
2023/05/06 04:33:21;;;;;;;12.37;10.30;;;13.40;48.30;;;;;;5046695;28;20965;-67
2023/05/06 04:35:52;;;;;;;13.50;10.30;;;13.50;48.40;;;;;;5050905;28;20485;-67
2023/05/06 04:38:20;;;;;;;11.73;9.50;;;13.50;48.10;;;;;;5051994;28;20466;-67
2023/05/06 04:40:48;;;;;;;13.40;11.40;;;13.50;47.90;;;;;;5050577;28;20557;-66
2023/05/06 04:43:15;;;;;;;13.20;10.80;;;13.50;48.00;;;;;;5046208;28;20466;-67
2023/05/06 04:45:48;;;;;;;12.60;10.13;;;13.60;47.80;;;;;;5048660;28;20564;-67
2023/05/06 04:48:17;;;;;;;13.50;10.97;;;13.70;47.90;;;;;;5050233;28;20489;-66
2023/05/06 04:50:44;;;;;;;12.40;10.67;;;13.70;47.70;;;;;;5046771;28;20493;-66
2023/05/06 04:53:10;;;;;;;13.30;11.57;;;13.80;48.10;;;;;;5050446;28;20486;-67
2023/05/06 04:55:37;;;;;;;12.77;11.33;;;13.90;47.50;;;;;;5048159;28;20482;-67
2023/05/06 04:58:04;;;;;;;13.03;11.07;;;13.90;47.40;;;;;;5047244;28;21008;-67
2023/05/06 05:00:31;;;;;;;13.90;10.83;;;13.90;47.40;;;;;;5048118;28;20966;-67
2023/05/06 05:02:57;;;;;;;12.70;10.37;;;13.90;47.30;;;;;;5051101;28;20457;-66
2023/05/06 05:05:26;;;;;;;14.00;11.23;;;14.00;47.20;;;;;;5045650;28;20478;-67
2023/05/06 05:07:53;;;;;;;12.43;9.90;;;14.10;47.20;;;;;;5044740;28;20469;-67
2023/05/06 05:10:20;;;;;;;13.03;11.20;;;14.10;47.10;;;;;;5046220;28;20465;-67
2023/05/06 05:12:46;;;;;;;14.27;11.60;;;14.10;47.10;;;;;;5050000;28;20463;-67
2023/05/06 05:15:13;;;;;;;15.60;12.50;;;14.10;47.30;;;;;;5047978;28;20478;-66
2023/05/06 05:17:40;;;;;;;13.90;11.50;;;14.10;47.50;;;;;;5046539;28;20482;-66
2023/05/06 05:20:08;;;;;;;14.90;10.03;;;14.20;47.20;;;;;;5048348;28;20903;-66
2023/05/06 05:22:36;;;;;;;13.10;10.93;;;14.20;47.20;;;;;;5048970;28;20466;-67
2023/05/06 05:25:03;;;;;;;16.03;11.13;;;14.20;47.00;;;;;;5048957;28;20579;-67
2023/05/06 05:27:30;;;;;;;15.03;11.67;;;14.30;46.90;;;;;;5048527;28;20485;-66
2023/05/06 05:29:56;;;;;;;13.53;10.70;;;14.30;47.00;;;;;;5047960;28;20477;-67
2023/05/06 05:32:23;;;;;;;16.37;11.50;;;14.40;46.90;;;;;;5047459;28;20470;-67
2023/05/06 05:34:50;;;;;;;15.07;12.30;;;14.40;46.90;;;;;;5045251;28;20469;-67
2023/05/06 05:37:17;;;;;;;16.70;12.17;;;14.50;46.90;;;;;;5046892;28;20557;-67
2023/05/06 05:39:45;;;;;;;14.10;11.73;;;14.60;46.80;;;;;;5049680;28;20457;-67
2023/05/06 05:42:11;;;;;;;18.60;11.23;;;14.60;46.70;;;;;;5052461;28;20465;-67
2023/05/06 05:44:38;;;;;;;13.00;10.67;;;14.70;46.50;;;;;;5050016;28;20458;-67
2023/05/06 05:47:05;;;;;;;12.50;10.80;;;14.80;46.50;;;;;;5046859;28;20536;-67
2023/05/06 05:49:32;;;;;;;14.00;12.20;;;14.90;46.60;;;;;;5050153;28;20493;-68
2023/05/06 05:51:58;;;;;;;14.77;10.67;;;15.00;46.40;;;;;;5045399;28;20457;-67
2023/05/06 05:54:25;;;;;;;13.10;11.10;;;15.20;46.10;;;;;;5047260;28;20462;-67
2023/05/06 05:56:53;;;;;;;12.37;10.70;;;15.40;45.80;;;;;;5045670;28;21213;-68
2023/05/06 05:59:20;;;;;;;16.20;10.50;;;15.50;45.00;;;;;;5047090;28;20469;-67
2023/05/06 06:01:47;;;;;;;12.47;10.50;;;15.70;44.80;;;;;;5046374;28;20533;-68
2023/05/06 06:04:14;;;;;;;12.63;9.97;;;15.80;44.40;;;;;;5046429;28;20462;-68
2023/05/06 06:06:41;;;;;;;12.90;10.70;;;16.10;43.90;;;;;;5046091;28;20515;-67
2023/05/06 06:09:09;;;;;;;11.37;9.70;;;16.20;43.10;;;;;;5050048;28;20461;-67
2023/05/06 06:11:36;;;;;;;12.10;9.33;;;16.60;42.30;;;;;;5049148;28;20477;-68
2023/05/06 06:14:04;;;;;;;12.00;9.07;;;16.90;41.60;;;;;;5043407;28;20505;-66
2023/05/06 06:16:30;;;;;;;11.93;8.93;;;18.00;40.00;;;;;;5045278;28;20485;-68
2023/05/06 06:18:57;;;;;;;9.27;7.77;;;18.80;36.50;;;;;;5047201;28;20470;-67
2023/05/06 06:21:24;;;;;;;11.53;8.77;;;19.30;34.40;;;;;;5048313;28;20464;-67
2023/05/06 06:23:50;;;;;;;8.93;7.47;;;20.60;31.50;;;;;;5048020;28;20541;-68
2023/05/06 06:26:17;;;;;;;9.10;7.30;;;21.70;26.50;;;;;;5042606;28;20489;-69
2023/05/06 06:28:44;;;;;;;12.10;8.47;;;21.50;24.20;;;;;;5046253;28;20985;-69
2023/05/06 06:31:12;;;;;;;9.17;7.53;;;21.00;24.40;;;;;;5051676;28;21128;-67
2023/05/06 06:33:39;;;;;;;9.70;7.10;;;20.70;24.80;;;;;;5048536;28;20461;-68
2023/05/06 06:36:06;;;;;;;9.30;7.40;;;20.50;25.70;;;;;;5043750;28;20497;-68
2023/05/06 06:38:33;;;;;;;10.50;7.37;;;20.30;26.10;;;;;;5046028;28;20472;-68
2023/05/06 06:40:59;;;;;;;9.03;7.53;;;20.30;25.90;;;;;;5046934;28;20466;-68
2023/05/06 06:43:26;;;;;;;9.00;6.90;;;20.30;25.70;;;;;;5042351;28;20477;-67
2023/05/06 06:45:53;;;;;;;9.33;6.67;;;20.40;25.50;;;;;;5045897;28;20474;-67
2023/05/06 06:48:21;;;;;;;9.20;7.00;;;20.40;25.00;;;;;;5048051;28;20465;-68
2023/05/06 06:50:48;;;;;;;12.40;6.73;;;20.70;24.20;;;;;;5045917;28;20764;-68
2023/05/06 06:53:14;;;;;;;8.13;6.27;;;21.40;24.70;;;;;;5043402;28;20462;-69
2023/05/06 06:55:43;;;;;;;8.07;5.13;;;24.90;18.60;;;;;;5047160;28;20478;-68
2023/05/06 06:58:10;;;;;;;7.23;4.80;;;27.90;9.70;;;;;;5042169;28;20565;-68
2023/05/06 07:00:37;;;;;;;5.80;4.00;;;28.80;4.70;;;;;;5044589;28;20474;-69
2023/05/06 07:03:03;;;;;;;6.70;4.10;;;28.10;4.70;;;;;;5042519;28;20942;-68
2023/05/06 07:05:31;;;;;;;6.33;4.20;;;27.80;4.90;;;;;;5043767;28;20493;-69
2023/05/06 07:07:58;;;;;;;6.10;4.50;;;28.00;4.20;;;;;;5045378;28;20466;-68
2023/05/06 07:10:25;;;;;;;6.67;4.00;;;28.00;4.40;;;;;;5043023;28;20470;-68
2023/05/06 07:12:52;;;;;;;7.40;5.53;;;29.20;2.40;;;;;;5045592;28;20468;-68
2023/05/06 07:15:19;;;;;;;6.67;5.00;;;30.00;1.30;;;;;;5040022;28;20482;-69
2023/05/06 07:17:46;;;;;;;7.10;4.57;;;31.00;1.00;;;;;;5043417;28;20793;-68
2023/05/06 07:20:13;;;;;;;6.70;4.20;;;31.90;1.00;;;;;;5047344;28;20469;-69
2023/05/06 07:22:42;;;;;;;8.80;5.80;;;31.30;1.00;;;;;;5049179;28;20468;-68
2023/05/06 07:25:09;;;;;;;8.33;4.93;;;30.50;1.00;;;;;;5047122;28;20485;-69
2023/05/06 07:27:36;;;;;;;11.90;5.40;;;30.10;1.00;;;;;;5047544;28;20856;-67
2023/05/06 07:30:03;;;;;;;6.70;5.00;;;30.40;1.00;;;;;;5046792;28;20481;-68
2023/05/06 07:32:30;;;;;;;6.17;4.30;;;33.00;1.00;;;;;;5048166;28;20474;-69
2023/05/06 07:34:57;;;;;;;6.63;4.10;;;35.90;1.00;;;;;;5044139;28;20576;-68
2023/05/06 07:37:23;;;;;;;5.90;4.03;;;38.20;1.00;;;;;;5048967;28;20489;-69
2023/05/06 07:39:51;;;;;;;6.10;3.67;;;40.00;1.00;;;;;;5049815;28;20489;-69
2023/05/06 07:44:50;;;;;;;6.10;3.50;;;42.90;1.00;;;;;;5061068;28;20976;-68
2023/05/06 07:47:26;;;;;;;5.30;3.40;;;43.70;1.00;;;;;;5044461;28;20466;-68
2023/05/06 07:49:53;;;;;;;5.40;2.77;;;42.60;1.00;;;;;;5045542;28;20449;-68
2023/05/06 07:52:19;;;;;;;4.80;2.90;;;41.50;1.00;;;;;;5051899;28;20477;-67
2023/05/06 07:54:46;;;;;;;4.57;2.70;;;40.50;1.00;;;;;;5049217;28;21094;-67
2023/05/06 07:57:15;;;;;;;4.80;3.10;;;39.20;1.00;;;;;;5043442;28;20482;-67
2023/05/06 07:59:42;;;;;;;5.57;2.90;;;39.10;1.00;;;;;;5046693;28;20466;-67
2023/05/06 08:02:09;;;;;;;4.90;3.50;;;39.50;1.00;;;;;;5045240;28;20474;-68
2023/05/06 08:04:36;;;;;;;5.37;3.77;;;39.20;1.00;;;;;;5048673;28;20461;-67
2023/05/06 08:07:02;;;;;;;7.97;4.20;;;39.00;1.00;;;;;;5045757;28;20469;-67
2023/05/06 08:09:29;;;;;;;5.13;3.33;;;38.90;1.00;;;;;;5055020;28;20980;-68
2023/05/06 08:11:57;;;;;;;7.03;3.40;;;38.10;1.00;;;;;;5049030;28;20462;-67
2023/05/06 08:14:25;;;;;;;7.50;3.57;;;39.00;1.00;;;;;;5051386;28;20471;-67
2023/05/06 08:16:52;;;;;;;5.70;3.70;;;39.80;1.00;;;;;;5046273;28;20592;-68
2023/05/06 08:19:20;;;;;;;8.30;4.20;;;40.90;1.00;;;;;;5051422;28;20520;-67
2023/05/06 08:21:47;;;;;;;6.67;3.37;;;40.70;1.00;;;;;;5046142;28;20513;-68
2023/05/06 08:24:14;;;;;;;5.60;3.33;;;41.90;1.00;;;;;;5040806;28;20512;-67
2023/05/06 08:26:41;;;;;;;6.60;2.97;;;43.30;1.00;;;;;;5052479;28;20473;-68
2023/05/06 08:29:08;;;;;;;4.67;2.80;;;41.90;1.00;;;;;;5049581;28;20465;-68
2023/05/06 08:31:36;;;;;;;5.10;3.17;;;39.40;1.00;;;;;;5044264;28;20472;-67
2023/05/06 08:34:03;;;;;;;5.50;3.30;;;37.30;1.00;;;;;;5040273;28;20471;-67
2023/05/06 08:36:30;;;;;;;6.20;3.60;;;35.30;1.00;;;;;;5047306;28;20492;-69
2023/05/06 08:38:56;;;;;;;5.30;2.67;;;34.00;1.00;;;;;;5054251;28;20482;-67
2023/05/06 08:41:26;;;;;;;5.93;3.00;;;35.60;1.00;;;;;;5043034;28;20466;-67
2023/05/06 08:43:54;;;;;;;5.33;2.80;;;37.50;1.00;;;;;;5044466;28;20473;-68
2023/05/06 08:46:21;;;;;;;5.07;2.90;;;36.90;1.00;;;;;;5034793;28;20494;-68
2023/05/06 08:48:49;;;;;;;7.50;3.70;;;38.70;1.00;;;;;;5049991;28;20466;-67
2023/05/06 08:51:16;;;;;;;6.47;3.27;;;40.50;1.00;;;;;;5044100;28;20462;-67
2023/05/06 08:53:47;;;;;;;5.00;2.50;;;40.80;1.00;;;;;;5048101;28;20558;-68
2023/05/06 08:56:15;;;;;;;5.63;2.30;;;39.20;1.00;;;;;;5039883;28;20521;-68
2023/05/06 08:58:45;;;;;;;4.40;1.93;;;37.40;1.00;;;;;;5042208;28;20610;-67
2023/05/06 09:01:13;;;;;;;4.00;2.00;;;36.00;1.00;;;;;;5043118;28;21013;-68
2023/05/06 09:03:40;;;;;;;5.47;2.23;;;34.60;1.00;;;;;;5044633;28;20867;-68
2023/05/06 09:06:08;;;;;;;5.70;2.63;;;33.30;1.00;;;;;;5044762;28;20477;-68
2023/05/06 09:08:35;;;;;;;4.83;2.40;;;32.10;1.00;;;;;;5055997;28;20460;-69
2023/05/06 09:11:02;;;;;;;4.70;2.33;;;31.10;1.00;;;;;;5044487;28;20461;-68
2023/05/06 09:13:29;;;;;;;4.97;2.50;;;30.10;1.00;;;;;;5045658;28;20542;-67
2023/05/06 09:15:55;;;;;;;5.40;2.60;;;29.30;1.00;;;;;;5042645;28;20557;-68
2023/05/06 09:18:23;;;;;;;5.07;2.97;;;28.40;1.00;;;;;;5048998;28;20869;-68
2023/05/06 09:20:49;;;;;;;5.13;2.80;;;27.70;1.00;;;;;;5044402;28;20497;-68
2023/05/06 09:23:18;;;;;;;5.73;3.20;;;27.20;1.00;;;;;;5046814;28;20466;-68
2023/05/06 09:25:46;;;;;;;5.67;3.10;;;26.70;1.40;;;;;;5054095;28;20480;-68
2023/05/06 09:28:14;;;;;;;5.70;3.57;;;26.50;2.30;;;;;;5036663;28;21228;-68
2023/05/06 09:30:41;;;;;;;5.60;3.13;;;26.70;3.30;;;;;;5046547;28;20474;-68
2023/05/06 09:33:08;;;;;;;4.87;2.93;;;29.70;1.70;;;;;;5047734;28;20466;-68
2023/05/06 09:35:37;;;;;;;6.43;3.23;;;31.30;1.00;;;;;;5047569;28;20493;-68
2023/05/06 09:38:03;;;;;;;6.70;3.20;;;32.20;1.00;;;;;;5047422;28;20510;-68
2023/05/06 09:41:00;;;;;;;7.10;3.73;;;31.60;1.00;;;;;;5041485;28;20596;-66
2023/05/06 09:43:27;;;;;;;5.83;3.00;;;31.30;1.00;;;;;;5047919;28;20968;-68
2023/05/06 09:45:54;;;;;;;6.53;4.00;;;33.70;1.00;;;;;;5039542;28;20561;-67
2023/05/06 09:48:22;;;;;;;6.90;3.77;;;34.40;1.00;;;;;;5041417;28;20455;-67
2023/05/06 09:50:49;;;;;;;6.43;3.03;;;33.20;1.00;;;;;;5044198;28;20526;-67
2023/05/06 09:53:17;;;;;;;6.40;3.67;;;31.60;1.00;;;;;;5053084;28;20462;-67
2023/05/06 09:55:45;;;;;;;6.53;3.73;;;30.40;1.00;;;;;;5043500;28;20497;-66
2023/05/06 09:58:14;;;;;;;6.90;3.63;;;29.50;1.00;;;;;;5041381;28;20489;-66
2023/05/06 10:00:42;;;;;;;5.90;3.07;;;28.80;1.00;;;;;;5049041;28;20461;-67
2023/05/06 10:03:10;;;;;;;5.17;3.33;;;28.30;1.00;;;;;;5045952;28;20461;-67
2023/05/06 10:05:37;;;;;;;6.17;3.37;;;27.90;1.00;;;;;;5042107;28;20989;-66
2023/05/06 10:08:05;;;;;;;5.00;2.73;;;27.60;1.00;;;;;;5042976;28;20466;-66
2023/05/06 10:10:34;;;;;;;6.60;3.00;;;27.20;1.20;;;;;;5042724;28;20491;-66
2023/05/06 10:13:03;;;;;;;7.60;3.00;;;26.70;1.30;;;;;;5052631;28;20465;-66
2023/05/06 10:15:32;;;;;;;6.90;3.60;;;26.20;2.30;;;;;;5042000;28;20477;-66
2023/05/06 10:18:00;;;;;;;6.33;3.20;;;25.80;2.70;;;;;;5045133;28;20900;-66
2023/05/06 10:20:30;;;;;;;6.63;3.03;;;25.40;3.60;;;;;;5042773;28;20581;-65
2023/05/06 10:23:06;;;;;;;6.30;3.60;;;25.10;4.50;;;;;;5041889;28;20718;-67
2023/05/06 10:25:36;;;;;;;5.10;2.60;;;25.00;5.20;;;;;;5041654;28;20856;-66
2023/05/06 10:28:05;;;;;;;4.57;2.40;;;25.10;4.80;;;;;;5045113;28;20469;-66
2023/05/06 10:30:34;;;;;;;7.00;3.83;;;25.30;3.80;;;;;;5038186;28;20485;-66
2023/05/06 10:33:05;;;;;;;6.03;3.20;;;25.40;3.70;;;;;;5042273;28;20469;-68
2023/05/06 10:35:42;;;;;;;6.50;3.10;;;25.60;2.70;;;;;;5041870;28;20521;-67
2023/05/06 10:38:13;;;;;;;6.20;2.87;;;25.50;3.20;;;;;;5035745;28;20477;-67
2023/05/06 10:40:40;;;;;;;7.33;2.83;;;25.20;3.60;;;;;;5036500;28;20470;-67
2023/05/06 10:43:24;;;;;;;4.97;2.70;;;25.00;3.30;;;;;;5038559;28;20462;-69
2023/05/06 10:46:07;;;;;;;6.70;3.07;;;25.00;3.20;;;;;;5034873;28;20563;-66
2023/05/06 10:48:35;;;;;;;5.10;2.60;;;25.10;3.60;;;;;;5037367;28;20467;-68
2023/05/06 10:51:24;;;;;;;5.10;2.80;;;25.30;4.10;;;;;;5039358;28;20538;-67
2023/05/06 10:54:02;;;;;;;5.47;2.50;;;25.30;3.50;;;;;;5055241;22;20485;-66
2023/05/06 10:56:31;;;;;;;6.10;3.07;;;25.20;3.30;;;;;;5066889;28;20477;-65
2023/05/06 10:59:06;;;;;;;8.50;2.93;;;25.20;2.70;;;;;;5068650;28;20485;-64
2023/05/06 11:01:35;;;;;;;5.20;2.20;;;25.20;3.20;;;;;;5064603;28;20588;-65
2023/05/06 11:04:06;;;;;;;4.10;2.00;;;25.20;3.00;;;;;;5068005;28;20875;-65
2023/05/06 11:06:39;;;;;;;7.50;2.80;;;25.40;3.80;;;;;;5060468;28;20483;-65
2023/05/06 11:09:07;;;;;;;5.17;2.33;;;25.60;2.70;;;;;;5064745;28;20496;-65
2023/05/06 11:11:51;;;;;;;4.80;2.40;;;25.80;2.90;;;;;;5061744;28;20951;-64
2023/05/06 11:14:26;;;;;;;5.40;2.47;;;25.60;1.10;;;;;;5066009;28;20944;-65
2023/05/06 11:16:56;;;;;;;6.60;2.67;;;25.50;1.10;;;;;;5062535;28;20480;-64
2023/05/06 11:19:24;;;;;;;5.87;2.67;;;25.30;1.40;;;;;;5065391;28;20513;-67
2023/05/06 11:21:53;;;;;;;4.40;2.17;;;25.00;2.10;;;;;;5068336;28;20903;-69
2023/05/06 11:24:24;;;;;;;5.67;2.43;;;24.90;2.70;;;;;;5069716;28;20467;-67
2023/05/06 11:26:51;;;;;;;6.73;2.53;;;25.00;3.60;;;;;;5062076;28;20481;-67
2023/05/06 11:29:19;;;;;;;4.50;1.90;;;25.10;4.00;;;;;;5060418;28;20477;-67
2023/05/06 11:31:47;;;;;;;6.17;2.07;;;25.20;3.00;;;;;;5066072;28;20461;-69
2023/05/06 11:34:21;;;;;;;5.23;2.30;;;25.40;3.10;;;;;;5064316;28;20460;-68
2023/05/06 11:36:51;;;;;;;5.53;2.50;;;25.50;2.10;;;;;;5067756;28;20480;-67
2023/05/06 11:39:17;;;;;;;4.13;1.80;;;25.30;1.80;;;;;;5065605;28;20489;-68
2023/05/06 11:41:44;;;;;;;5.50;2.20;;;25.20;2.40;;;;;;5063263;28;20456;-66
2023/05/06 11:44:13;;;;;;;4.37;1.87;;;25.10;2.80;;;;;;5066746;28;20560;-67
2023/05/06 11:46:40;;;;;;;5.40;2.40;;;25.00;3.50;;;;;;5067792;28;20482;-67
2023/05/06 11:49:06;;;;;;;5.83;2.10;;;25.00;4.20;;;;;;5063554;28;20551;-67
2023/05/06 11:51:35;;;;;;;5.60;1.87;;;25.00;4.00;;;;;;5059103;28;20461;-66
2023/05/06 11:54:07;;;;;;;3.90;1.63;;;24.90;3.70;;;;;;5061141;28;20950;-67
2023/05/06 11:56:45;;;;;;;6.10;1.90;;;24.90;3.50;;;;;;5056753;28;20483;-66
2023/05/06 11:59:12;;;;;;;5.20;2.23;;;24.80;3.30;;;;;;5059643;28;20604;-67
2023/05/06 12:01:41;;;;;;;4.50;1.83;;;24.90;4.40;;;;;;5065861;28;20465;-66
2023/05/06 12:04:08;;;;;;;4.60;1.70;;;24.90;3.30;;;;;;5065144;28;20466;-67
2023/05/06 12:06:37;;;;;;;6.00;2.10;;;24.80;2.70;;;;;;5063609;28;20480;-66
2023/05/06 12:09:05;;;;;;;5.60;1.63;;;24.50;3.90;;;;;;5059521;28;20473;-66
2023/05/06 12:11:33;;;;;;;4.63;1.87;;;24.30;3.70;;;;;;5067938;28;20469;-66
2023/05/06 12:14:00;;;;;;;5.20;1.83;;;24.00;4.10;;;;;;5065168;28;20465;-67
2023/05/06 12:16:27;;;;;;;5.20;1.70;;;23.80;3.70;;;;;;5062373;28;20515;-66
2023/05/06 12:18:54;;;;;;;5.00;1.90;;;23.80;4.40;;;;;;5066376;28;20483;-67
2023/05/06 12:21:22;;;;;;;5.73;1.77;;;23.80;5.60;;;;;;5063808;28;20469;-67
2023/05/06 12:23:55;;;;;;;5.50;1.90;;;23.90;5.10;;;;;;5063902;28;20493;-66
2023/05/06 12:26:22;;;;;;;4.63;1.73;;;23.90;6.00;;;;;;5065521;28;20484;-67
2023/05/06 12:29:05;;;;;;;8.50;2.20;;;24.00;6.90;;;;;;5060413;28;20494;-66
2023/05/06 12:31:32;;;;;;;4.97;1.97;;;24.20;6.00;;;;;;5065055;28;20472;-66
2023/05/06 12:33:59;;;;;;;6.03;1.73;;;24.30;6.50;;;;;;5064663;28;20488;-67
2023/05/06 12:36:26;;;;;;;4.50;1.90;;;24.40;5.80;;;;;;5066392;28;20492;-67
2023/05/06 12:38:56;;;;;;;5.30;1.80;;;24.50;6.20;;;;;;5066187;28;20485;-67
2023/05/06 12:41:35;;;;;;;7.53;2.73;;;24.60;6.30;;;;;;5061897;28;20969;-67
2023/05/06 12:44:02;;;;;;;21.70;12.90;;;24.70;5.10;;;;;;5062582;28;20499;-66
2023/05/06 12:46:28;;;;;;;4.73;1.60;;;24.80;5.00;;;;;;5063900;28;20473;-67
2023/05/06 12:48:59;;;;;;;5.50;2.00;;;24.90;4.70;;;;;;5061036;28;20458;-67
2023/05/06 12:51:26;;;;;;;4.53;1.80;;;24.90;3.40;;;;;;5064144;28;20470;-67
2023/05/06 12:53:54;;;;;;;5.20;1.90;;;24.80;3.40;;;;;;5067148;28;20832;-67